Stretford, United Kingdom
Current Conditions -  °F | °C
As of 4:50 AM on Saturday 29 Nov 2014 (Local Time) from EGCC Reporting Station
Light Rain Light Rain  
Wind Chill: 10°   Ceiling: Unl
Heat Index: 10°   Visibility: 6mi
Dew Point:   Wind: 10mph
Humidity: 94%   Direction: 90°E
Pressure: 29.8"   Gusts: NA
Location:  53.44°N, 2.32°W
Report Text: EGCC 290450Z 09009KT 9000 -RA NSC 10/09 Q1009 TEMPO 4000 RA
Loading
Personal Weather Stations






























Interactive Weather Map New forecast layout! Learn more

10-Day Weather Forecast

Advertisements
Track Severe Weather on mobile